Time;durP1;ratioP1;P1;durP2;ratioP2;P2;SDS_P1;SDS_P2;PMS_P1;PMS_P2;Temp;Humidity;BMP_temperature;BMP_pressure;BME280_temperature;BME280_humidity;BME280_pressure;Samples;Min_cycle;Max_cycle;Signal;HPM_P1;HPM_P2
2021/11/27 00:01:21;;;;;;;17.33;14.77;;;6.50;88.90;;;;;;5049893;28;20777;-69
2021/11/27 00:03:47;;;;;;;15.05;13.30;;;6.40;88.80;;;;;;5049741;28;20068;-69
2021/11/27 00:06:13;;;;;;;18.30;15.40;;;6.40;88.90;;;;;;5084018;28;20092;-70
2021/11/27 00:08:39;;;;;;;16.95;15.00;;;6.30;89.00;;;;;;5084483;28;20048;-70
2021/11/27 00:11:05;;;;;;;19.63;16.40;;;6.30;88.90;;;;;;5051924;28;20400;-69
2021/11/27 00:13:31;;;;;;;18.88;15.75;;;6.30;89.00;;;;;;5069670;28;20041;-69
2021/11/27 00:15:57;;;;;;;18.70;14.57;;;6.30;89.00;;;;;;5069743;28;20025;-70
2021/11/27 00:18:24;;;;;;;19.33;16.73;;;6.30;89.00;;;;;;5070209;28;20086;-70
2021/11/27 00:20:54;;;;;;;18.33;15.77;;;6.30;89.00;;;;;;5076280;28;20132;-69
2021/11/27 00:23:21;;;;;;;17.45;15.05;;;6.30;89.00;;;;;;5083176;28;20530;-69
2021/11/27 00:25:47;;;;;;;17.63;14.63;;;6.30;88.90;;;;;;5068776;28;20027;-70
2021/11/27 00:28:13;;;;;;;17.52;14.30;;;6.30;88.90;;;;;;5069684;28;20032;-70
2021/11/27 00:30:40;;;;;;;16.95;14.90;;;6.30;88.90;;;;;;5069743;28;20037;-69
2021/11/27 00:33:06;;;;;;;16.63;14.32;;;6.30;88.80;;;;;;5069464;28;20036;-69
2021/11/27 00:35:33;;;;;;;19.23;14.63;;;6.30;88.70;;;;;;5067821;28;20047;-74
2021/11/27 00:37:59;;;;;;;17.98;15.35;;;6.30;88.70;;;;;;5068941;28;20479;-69
2021/11/27 00:40:26;;;;;;;19.27;15.30;;;6.30;88.60;;;;;;5068750;28;20387;-74
2021/11/27 00:42:54;;;;;;;20.15;15.73;;;6.30;88.60;;;;;;5053322;28;20040;-69
2021/11/27 00:45:21;;;;;;;18.20;14.70;;;6.30;88.50;;;;;;5067794;28;20177;-74
2021/11/27 00:47:50;;;;;;;17.17;14.00;;;6.30;88.50;;;;;;5070111;28;20033;-74
2021/11/27 00:50:19;;;;;;;17.33;13.57;;;6.30;89.10;;;;;;5069459;28;20074;-74
2021/11/27 00:52:45;;;;;;;14.63;12.32;;;6.30;88.50;;;;;;5069259;28;20031;-69
2021/11/27 00:55:11;;;;;;;14.10;11.98;;;6.30;88.50;;;;;;5050158;28;20566;-74
2021/11/27 00:57:38;;;;;;;14.95;12.20;;;6.30;88.40;;;;;;5069340;28;20024;-74
2021/11/27 01:00:10;;;;;;;16.05;11.65;;;6.40;88.40;;;;;;5069414;28;20044;-73
2021/11/27 01:02:37;;;;;;;18.98;14.15;;;6.40;88.40;;;;;;5069592;28;20356;-74
2021/11/27 01:05:03;;;;;;;17.13;13.45;;;6.40;88.20;;;;;;5050850;28;20055;-74
2021/11/27 01:07:29;;;;;;;18.35;14.35;;;6.40;88.10;;;;;;5055150;28;20558;-69
2021/11/27 01:09:55;;;;;;;18.10;14.18;;;6.30;88.20;;;;;;5051325;28;20108;-69
2021/11/27 01:12:20;;;;;;;19.20;14.50;;;6.30;88.20;;;;;;5069102;28;20036;-69
2021/11/27 01:14:46;;;;;;;18.55;14.45;;;6.30;88.00;;;;;;5067671;28;20025;-73
2021/11/27 01:17:13;;;;;;;17.50;14.20;;;6.30;88.10;;;;;;5062738;28;20037;-73
2021/11/27 01:19:40;;;;;;;17.05;13.57;;;6.30;88.20;;;;;;5049033;28;20182;-69
2021/11/27 01:22:14;;;;;;;17.45;13.27;;;6.30;88.20;;;;;;5059620;28;20110;-69
2021/11/27 01:24:41;;;;;;;17.35;13.82;;;6.20;88.20;;;;;;5049908;28;20470;-69
2021/11/27 01:27:08;;;;;;;18.92;14.73;;;6.20;88.70;;;;;;5070354;28;20024;-69
2021/11/27 01:29:34;;;;;;;19.38;14.48;;;6.20;88.20;;;;;;5067270;28;20039;-69
2021/11/27 01:32:00;;;;;;;20.35;14.50;;;6.20;88.10;;;;;;5054166;28;20457;-69
2021/11/27 01:34:26;;;;;;;19.25;14.45;;;6.20;88.20;;;;;;5071933;28;20107;-69
2021/11/27 01:36:52;;;;;;;17.55;13.75;;;6.20;88.20;;;;;;5067203;28;20376;-69
2021/11/27 01:39:18;;;;;;;16.90;12.90;;;6.20;88.30;;;;;;5070148;28;20308;-69
2021/11/27 01:41:44;;;;;;;16.75;13.30;;;6.20;88.30;;;;;;5055021;28;20037;-68
2021/11/27 01:44:10;;;;;;;16.35;12.48;;;6.20;88.20;;;;;;5051955;28;20460;-68
2021/11/27 01:46:38;;;;;;;17.10;12.13;;;6.20;88.20;;;;;;5096118;28;20033;-69
2021/11/27 01:49:05;;;;;;;15.88;11.63;;;6.20;88.20;;;;;;5066200;28;20125;-69
2021/11/27 01:51:31;;;;;;;15.93;12.50;;;6.10;87.90;;;;;;5053391;28;20130;-69
2021/11/27 01:54:02;;;;;;;14.70;10.65;;;6.10;87.90;;;;;;5066119;28;20821;-69
2021/11/27 01:56:32;;;;;;;14.55;9.63;;;6.10;87.80;;;;;;5062144;28;20382;-69
2021/11/27 01:58:58;;;;;;;13.50;9.25;;;6.10;87.80;;;;;;5070911;28;20024;-69
2021/11/27 02:01:28;;;;;;;15.35;9.00;;;6.10;87.80;;;;;;5056394;28;20072;-69
2021/11/27 02:03:54;;;;;;;14.57;9.15;;;6.10;87.80;;;;;;5051062;28;20476;-69
2021/11/27 02:06:21;;;;;;;12.20;8.60;;;6.10;87.70;;;;;;5085216;28;20036;-69
2021/11/27 02:08:50;;;;;;;14.40;8.57;;;6.10;87.60;;;;;;5093127;28;20370;-69
2021/11/27 02:11:22;;;;;;;12.57;9.00;;;6.20;87.60;;;;;;5093490;28;20488;-69
2021/11/27 02:13:48;;;;;;;;;;;6.20;87.60;;;;;;5074814;28;20038;-69
2021/11/27 02:16:14;;;;;;;15.07;9.13;;;6.20;87.50;;;;;;5091169;28;19998;-74
2021/11/27 02:18:39;;;;;;;12.35;9.43;;;6.20;87.50;;;;;;5092746;28;20459;-74
2021/11/27 02:21:08;;;;;;;12.73;8.20;;;6.10;87.60;;;;;;5092753;28;20113;-74
2021/11/27 02:23:34;;;;;;;9.20;7.28;;;6.10;87.50;;;;;;5097373;28;20031;-69
2021/11/27 02:26:02;;;;;;;8.25;6.20;;;6.10;87.10;;;;;;5090558;28;20028;-74
2021/11/27 02:28:29;;;;;;;10.35;6.63;;;6.10;87.60;;;;;;5091753;28;20036;-74
2021/11/27 02:30:55;;;;;;;9.15;6.10;;;6.00;87.10;;;;;;5092271;28;20642;-69
2021/11/27 02:33:21;;;;;;;8.85;5.85;;;6.00;87.00;;;;;;5073325;28;20071;-69
2021/11/27 02:35:46;;;;;;;6.65;5.32;;;6.00;86.90;;;;;;5083696;28;20375;-73
2021/11/27 02:38:13;;;;;;;7.07;5.53;;;6.00;86.80;;;;;;5077560;28;20027;-69
2021/11/27 02:40:39;;;;;;;5.93;4.07;;;6.00;86.70;;;;;;5095501;28;20659;-69
2021/11/27 02:43:05;;;;;;;5.57;4.20;;;6.00;86.60;;;;;;5074148;28;20036;-74
2021/11/27 02:45:30;;;;;;;5.63;3.42;;;6.00;86.60;;;;;;5073178;28;20024;-69
2021/11/27 02:47:56;;;;;;;3.75;2.75;;;5.90;86.50;;;;;;5091905;28;20674;-69
2021/11/27 02:50:24;;;;;;;2.92;2.30;;;5.90;86.30;;;;;;5091703;28;20036;-69
2021/11/27 02:52:50;;;;;;;4.05;2.10;;;5.90;86.30;;;;;;5073576;28;20089;-69
2021/11/27 02:55:16;;;;;;;2.83;1.70;;;5.90;86.20;;;;;;5092480;28;20036;-74
2021/11/27 02:57:42;;;;;;;3.47;1.70;;;5.80;86.10;;;;;;5102779;28;20020;-69
2021/11/27 03:00:12;;;;;;;5.50;1.80;;;5.80;86.20;;;;;;5104073;28;20030;-73
2021/11/27 03:02:37;;;;;;;3.15;1.67;;;5.80;86.20;;;;;;5093301;28;20513;-74
2021/11/27 03:05:04;;;;;;;3.53;1.67;;;5.80;86.10;;;;;;5091173;28;20044;-74
2021/11/27 03:07:29;;;;;;;4.00;1.38;;;5.70;85.80;;;;;;5057001;28;20047;-69
2021/11/27 03:09:55;;;;;;;4.05;1.40;;;5.70;85.60;;;;;;5091288;28;20390;-69
2021/11/27 03:12:21;;;;;;;4.80;1.50;;;5.70;85.80;;;;;;5072885;28;20032;-69
2021/11/27 03:14:47;;;;;;;2.25;1.20;;;5.70;85.90;;;;;;5091198;28;20024;-69
2021/11/27 03:17:14;;;;;;;2.25;1.33;;;5.60;85.60;;;;;;5075851;28;20501;-69
2021/11/27 03:19:42;;;;;;;5.05;1.40;;;5.50;85.40;;;;;;5090130;28;20510;-69
2021/11/27 03:22:09;;;;;;;2.22;1.30;;;5.50;85.60;;;;;;5090809;28;20077;-73
2021/11/27 03:24:36;;;;;;;2.10;1.42;;;5.50;85.70;;;;;;5091059;28;20035;-68
2021/11/27 03:27:02;;;;;;;3.13;1.17;;;5.50;85.70;;;;;;5088070;28;20024;-68
2021/11/27 03:29:28;;;;;;;1.63;1.20;;;5.50;85.60;;;;;;5077255;28;20027;-69
2021/11/27 03:32:04;;;;;;;2.45;1.20;;;5.50;86.00;;;;;;5081365;28;20514;-68
2021/11/27 03:34:30;;;;;;;1.42;0.95;;;5.50;85.60;;;;;;5090476;28;20555;-73
2021/11/27 03:36:55;;;;;;;2.55;1.25;;;5.50;85.50;;;;;;5090784;28;20028;-69
2021/11/27 03:39:21;;;;;;;1.38;1.25;;;5.50;85.30;;;;;;5090865;28;20087;-74
2021/11/27 03:41:48;;;;;;;1.65;0.93;;;5.50;85.30;;;;;;5090970;28;20073;-69
2021/11/27 03:44:14;;;;;;;1.35;1.10;;;5.40;85.20;;;;;;5090192;28;20526;-74
2021/11/27 03:46:40;;;;;;;2.50;1.33;;;5.40;85.40;;;;;;5090140;28;20020;-68
2021/11/27 03:49:06;;;;;;;2.70;1.00;;;5.40;85.40;;;;;;5071875;28;20039;-69
2021/11/27 03:51:32;;;;;;;2.35;1.00;;;5.40;85.50;;;;;;5090166;28;20020;-69
2021/11/27 03:53:58;;;;;;;1.17;0.90;;;5.40;85.40;;;;;;5054793;28;20024;-69
2021/11/27 03:56:29;;;;;;;1.67;1.00;;;5.40;85.30;;;;;;5089753;28;20036;-69
2021/11/27 03:58:58;;;;;;;1.77;1.17;;;5.40;85.00;;;;;;5089265;28;20024;-69
2021/11/27 04:01:28;;;;;;;2.22;1.05;;;5.40;84.90;;;;;;5089884;28;20115;-69
2021/11/27 04:03:55;;;;;;;2.17;0.85;;;5.30;84.70;;;;;;5090054;28;20058;-69
2021/11/27 04:06:21;;;;;;;1.50;0.90;;;5.30;84.70;;;;;;5089460;28;20563;-74
2021/11/27 04:08:47;;;;;;;2.00;0.98;;;5.30;85.00;;;;;;5072180;28;20020;-73
2021/11/27 04:11:13;;;;;;;1.60;1.20;;;5.20;84.40;;;;;;5088915;28;20036;-73
2021/11/27 04:13:39;;;;;;;1.48;1.02;;;5.20;84.30;;;;;;5069685;28;20032;-73
2021/11/27 04:16:05;;;;;;;1.17;1.02;;;5.10;84.40;;;;;;5054427;28;20116;-73
2021/11/27 04:18:31;;;;;;;1.13;0.88;;;5.10;84.60;;;;;;5054666;28;20063;-73
2021/11/27 04:20:57;;;;;;;2.67;0.80;;;5.10;84.70;;;;;;5089634;28;20103;-73
2021/11/27 04:23:24;;;;;;;1.08;0.82;;;5.10;84.60;;;;;;5089305;28;20154;-73
2021/11/27 04:25:50;;;;;;;1.10;0.98;;;5.20;84.40;;;;;;5088914;28;20384;-73
2021/11/27 04:28:16;;;;;;;1.40;1.02;;;5.10;84.30;;;;;;5089449;28;20513;-73
2021/11/27 04:30:42;;;;;;;1.35;1.10;;;5.10;84.20;;;;;;5089553;28;20103;-73
2021/11/27 04:33:08;;;;;;;1.50;1.25;;;5.00;84.20;;;;;;5088839;28;20055;-73
2021/11/27 04:35:34;;;;;;;1.35;1.10;;;5.00;84.40;;;;;;5089539;28;20028;-73
2021/11/27 04:38:01;;;;;;;1.88;1.00;;;5.00;84.40;;;;;;5089143;28;20024;-73
2021/11/27 04:40:30;;;;;;;1.85;1.00;;;5.00;84.30;;;;;;5070909;28;20085;-73
2021/11/27 04:42:56;;;;;;;1.10;1.00;;;4.90;83.70;;;;;;5089388;28;20028;-73
2021/11/27 04:45:22;;;;;;;1.83;0.98;;;4.90;83.80;;;;;;5088802;28;20123;-73
2021/11/27 04:47:48;;;;;;;1.60;1.10;;;4.90;84.00;;;;;;5071925;28;20439;-73
2021/11/27 04:50:15;;;;;;;1.63;1.10;;;4.80;83.90;;;;;;5088838;28;20042;-73
2021/11/27 04:52:41;;;;;;;1.58;1.20;;;4.80;83.80;;;;;;5089582;28;20123;-73
2021/11/27 04:55:10;;;;;;;1.30;1.20;;;4.80;83.80;;;;;;5070183;28;20483;-73
2021/11/27 04:57:35;;;;;;;1.65;1.30;;;4.80;83.90;;;;;;5089344;28;20093;-73
2021/11/27 05:00:03;;;;;;;1.23;0.93;;;4.90;83.80;;;;;;5091454;28;20028;-68
2021/11/27 05:02:28;;;;;;;1.45;1.30;;;4.90;83.60;;;;;;5093913;28;20028;-68
2021/11/27 05:04:54;;;;;;;1.38;1.27;;;4.90;83.30;;;;;;5075155;28;20610;-73
2021/11/27 05:07:20;;;;;;;1.05;1.00;;;4.90;83.40;;;;;;5094425;28;20390;-68
2021/11/27 05:09:45;;;;;;;1.50;1.40;;;4.80;83.40;;;;;;5091607;28;20024;-68
2021/11/27 05:12:11;;;;;;;1.33;1.15;;;4.80;83.30;;;;;;5074312;28;20502;-73
2021/11/27 05:14:37;;;;;;;0.90;0.85;;;4.80;83.10;;;;;;5092082;28;20032;-68
2021/11/27 05:17:02;;;;;;;1.33;1.10;;;4.70;83.30;;;;;;5081102;28;20073;-68
2021/11/27 05:19:28;;;;;;;1.50;1.10;;;4.70;83.40;;;;;;5084670;28;20356;-73
2021/11/27 05:21:54;;;;;;;1.05;0.95;;;4.70;83.40;;;;;;5080061;28;20028;-68
2021/11/27 05:24:20;;;;;;;0.77;0.77;;;4.60;83.30;;;;;;5085739;28;20154;-69
2021/11/27 05:26:45;;;;;;;1.48;1.08;;;4.60;83.50;;;;;;5105168;28;20052;-68
2021/11/27 05:29:11;;;;;;;2.30;0.80;;;4.60;83.60;;;;;;5101070;28;20053;-73
2021/11/27 05:31:37;;;;;;;0.70;0.70;;;4.60;83.50;;;;;;5098284;28;20028;-73
2021/11/27 05:36:32;;;;;;;2.05;1.00;;;4.60;83.60;;;;;;5103951;28;20039;-73
2021/11/27 05:38:59;;;;;;;1.35;1.00;;;4.50;83.50;;;;;;5101501;28;20028;-74
2021/11/27 05:41:26;;;;;;;1.10;0.90;;;4.50;83.50;;;;;;5100152;28;20028;-73
2021/11/27 05:43:53;;;;;;;0.98;0.90;;;4.50;83.60;;;;;;5091335;28;20016;-73
2021/11/27 05:46:19;;;;;;;1.33;0.80;;;4.50;83.60;;;;;;5091556;28;20051;-73
2021/11/27 05:48:45;;;;;;;1.38;1.10;;;4.50;83.50;;;;;;5088431;28;20036;-73
2021/11/27 05:51:12;;;;;;;1.98;1.00;;;4.50;83.60;;;;;;5102661;28;20051;-74
2021/11/27 05:53:38;;;;;;;1.10;1.00;;;4.50;83.40;;;;;;5081758;28;20032;-73
2021/11/27 05:56:04;;;;;;;1.38;1.00;;;4.40;83.40;;;;;;5079344;28;20043;-74
2021/11/27 05:58:30;;;;;;;0.80;0.80;;;4.40;83.50;;;;;;5081312;28;20414;-69
2021/11/27 06:00:56;;;;;;;1.38;1.00;;;4.40;83.60;;;;;;5081181;28;20111;-69
2021/11/27 06:03:22;;;;;;;1.45;1.15;;;4.40;83.70;;;;;;5091410;28;20031;-68
2021/11/27 06:05:47;;;;;;;2.95;1.30;;;4.40;83.50;;;;;;5091843;28;20056;-68
2021/11/27 06:08:13;;;;;;;2.15;1.13;;;4.30;83.50;;;;;;5092620;28;20111;-74
2021/11/27 06:10:39;;;;;;;2.40;1.20;;;4.30;83.50;;;;;;5091314;28;20381;-69
2021/11/27 06:13:04;;;;;;;1.52;1.00;;;4.30;83.70;;;;;;5092493;28;20039;-69
2021/11/27 06:15:30;;;;;;;1.23;1.10;;;4.30;83.90;;;;;;5074339;28;20035;-73
2021/11/27 06:17:58;;;;;;;1.35;1.10;;;4.20;83.80;;;;;;5074308;28;20024;-73
2021/11/27 06:20:25;;;;;;;2.45;0.98;;;4.20;83.90;;;;;;5092143;28;20360;-69
2021/11/27 06:22:50;;;;;;;1.58;1.30;;;4.20;83.80;;;;;;5092170;28;20061;-74
2021/11/27 06:25:16;;;;;;;1.50;1.30;;;4.20;83.90;;;;;;5092549;28;20038;-73
2021/11/27 06:27:41;;;;;;;1.30;1.20;;;4.20;84.00;;;;;;5092344;28;20032;-69
2021/11/27 06:30:08;;;;;;;1.35;1.25;;;4.20;84.10;;;;;;5091955;28;20589;-74
2021/11/27 06:32:35;;;;;;;1.77;1.65;;;4.20;84.00;;;;;;5092695;28;20032;-69
2021/11/27 06:35:01;;;;;;;1.75;1.40;;;4.20;84.00;;;;;;5073515;28;20070;-69
2021/11/27 06:37:27;;;;;;;1.73;1.42;;;4.20;84.10;;;;;;5074082;28;20084;-69
2021/11/27 06:39:53;;;;;;;2.03;1.33;;;4.20;84.00;;;;;;5092080;28;20024;-74
2021/11/27 06:42:19;;;;;;;1.42;1.33;;;4.20;83.90;;;;;;5074150;28;20477;-69
2021/11/27 06:44:48;;;;;;;2.08;1.30;;;4.10;84.10;;;;;;5073626;28;20039;-69
2021/11/27 06:47:16;;;;;;;1.73;1.63;;;4.10;84.20;;;;;;5074380;28;20123;-69
2021/11/27 06:49:42;;;;;;;1.80;1.58;;;4.10;84.30;;;;;;5091615;28;20024;-69
2021/11/27 06:52:09;;;;;;;2.28;2.08;;;4.20;84.20;;;;;;5091983;28;20028;-69
2021/11/27 06:54:35;;;;;;;2.65;1.80;;;4.10;84.10;;;;;;5091609;28;20036;-74
2021/11/27 06:57:00;;;;;;;2.92;1.70;;;4.10;84.10;;;;;;5091584;28;20036;-74
2021/11/27 06:59:26;;;;;;;1.88;1.77;;;4.10;84.10;;;;;;5091876;28;20203;-74
2021/11/27 07:01:52;;;;;;;1.95;1.75;;;4.10;84.10;;;;;;5091960;28;20093;-74
2021/11/27 07:04:18;;;;;;;1.88;1.70;;;4.10;84.10;;;;;;5069748;28;20554;-69
2021/11/27 07:06:44;;;;;;;3.35;1.75;;;4.10;84.10;;;;;;5100923;28;20043;-69
2021/11/27 07:09:11;;;;;;;1.98;1.83;;;4.10;84.00;;;;;;5073465;28;20572;-69
2021/11/27 07:11:38;;;;;;;2.05;1.90;;;4.20;84.10;;;;;;5091036;28;20048;-69
2021/11/27 07:14:03;;;;;;;2.10;1.88;;;4.20;83.90;;;;;;5090964;28;20439;-69
2021/11/27 07:16:29;;;;;;;2.25;2.05;;;4.20;83.90;;;;;;5091404;28;20115;-72
2021/11/27 07:18:55;;;;;;;2.15;1.90;;;4.20;83.90;;;;;;5091410;28;20081;-72
2021/11/27 07:21:21;;;;;;;5.95;2.22;;;4.10;83.80;;;;;;5090861;28;20020;-75
2021/11/27 07:23:47;;;;;;;2.50;2.20;;;4.10;84.00;;;;;;5072655;28;20032;-72
2021/11/27 07:26:13;;;;;;;2.05;1.85;;;4.10;84.00;;;;;;5090549;28;20024;-73
2021/11/27 07:28:38;;;;;;;2.05;1.90;;;4.10;83.70;;;;;;5091456;28;20040;-72
2021/11/27 07:31:04;;;;;;;2.00;1.90;;;4.10;83.90;;;;;;5088828;28;20089;-73
2021/11/27 07:33:30;;;;;;;2.13;1.90;;;4.10;83.90;;;;;;5089512;28;20055;-73
2021/11/27 07:35:56;;;;;;;2.45;2.20;;;4.10;83.80;;;;;;5070125;28;20391;-73
2021/11/27 07:38:22;;;;;;;2.60;2.40;;;4.10;83.80;;;;;;5093590;28;20027;-73
2021/11/27 07:40:48;;;;;;;2.60;2.40;;;4.10;83.80;;;;;;5074294;28;20036;-73
2021/11/27 07:43:14;;;;;;;2.67;2.47;;;4.00;83.80;;;;;;5095061;28;20038;-73
2021/11/27 07:45:40;;;;;;;3.03;2.75;;;4.00;83.80;;;;;;5073650;28;20036;-73
2021/11/27 07:48:06;;;;;;;2.75;2.55;;;4.00;83.70;;;;;;5096794;28;20032;-73
2021/11/27 07:50:33;;;;;;;2.90;2.60;;;4.00;83.80;;;;;;5089138;28;20504;-73
2021/11/27 07:52:59;;;;;;;2.70;2.50;;;4.00;83.70;;;;;;5071219;28;20632;-75
2021/11/27 07:55:26;;;;;;;2.65;2.45;;;4.00;83.80;;;;;;5077629;28;20059;-76
2021/11/27 07:57:51;;;;;;;3.35;3.05;;;3.90;83.80;;;;;;5071663;28;20059;-73
2021/11/27 08:00:17;;;;;;;3.28;2.83;;;3.90;83.60;;;;;;5070795;28;20024;-72
2021/11/27 08:02:43;;;;;;;2.80;2.60;;;3.90;83.60;;;;;;5088712;28;20156;-72
2021/11/27 08:05:09;;;;;;;3.30;2.70;;;3.90;83.60;;;;;;5089493;28;20063;-72
2021/11/27 08:07:35;;;;;;;2.70;2.50;;;3.90;83.70;;;;;;5071783;28;20032;-72
2021/11/27 08:10:07;;;;;;;3.45;3.15;;;3.90;83.70;;;;;;5071469;28;20081;-72
2021/11/27 08:12:33;;;;;;;2.85;2.55;;;3.90;83.70;;;;;;5089093;28;20039;-72
2021/11/27 08:14:59;;;;;;;3.15;2.85;;;3.90;83.40;;;;;;5089414;28;20936;-72
2021/11/27 08:17:24;;;;;;;2.63;2.42;;;3.90;83.40;;;;;;5090434;28;20039;-72
2021/11/27 08:19:50;;;;;;;3.35;3.03;;;3.90;83.50;;;;;;5055688;28;20047;-72
2021/11/27 08:22:16;;;;;;;4.03;3.20;;;3.90;83.60;;;;;;5092112;28;20039;-72
2021/11/27 08:24:42;;;;;;;3.13;2.65;;;3.80;83.70;;;;;;5079896;28;20039;-72
2021/11/27 08:27:07;;;;;;;3.95;3.28;;;3.90;83.80;;;;;;5098878;28;20012;-72
2021/11/27 08:29:33;;;;;;;4.15;3.50;;;3.90;83.70;;;;;;5079358;28;20051;-72
2021/11/27 08:31:59;;;;;;;2.97;2.67;;;3.90;83.70;;;;;;5098776;28;20410;-72
2021/11/27 08:34:25;;;;;;;3.65;2.92;;;3.90;83.60;;;;;;5098254;28;20024;-72
2021/11/27 08:36:50;;;;;;;3.67;3.13;;;3.90;83.70;;;;;;5080767;28;20024;-75
2021/11/27 08:39:16;;;;;;;4.38;3.72;;;3.80;83.60;;;;;;5083215;28;20028;-72
2021/11/27 08:41:43;;;;;;;4.00;3.60;;;3.90;83.70;;;;;;5093913;28;20430;-75
2021/11/27 08:44:09;;;;;;;4.22;3.67;;;3.90;83.70;;;;;;5093107;28;20212;-72
2021/11/27 08:46:35;;;;;;;3.55;3.25;;;3.90;83.70;;;;;;5080393;28;20357;-74
2021/11/27 08:49:01;;;;;;;6.03;3.90;;;3.90;83.80;;;;;;5100443;28;20016;-75
2021/11/27 08:51:27;;;;;;;4.80;3.88;;;3.90;83.80;;;;;;5099188;28;20110;-73
2021/11/27 08:53:53;;;;;;;6.03;4.25;;;3.90;83.80;;;;;;5089238;28;20115;-74
2021/11/27 08:56:19;;;;;;;5.45;4.15;;;3.90;83.90;;;;;;5094857;28;20082;-75
2021/11/27 08:58:45;;;;;;;5.32;3.97;;;3.90;83.90;;;;;;5098265;28;20032;-75
2021/11/27 09:01:12;;;;;;;5.20;4.10;;;3.90;84.00;;;;;;5100585;28;20434;-75
2021/11/27 09:03:39;;;;;;;5.13;4.25;;;3.90;84.00;;;;;;5093717;28;20036;-75
2021/11/27 09:06:06;;;;;;;3.67;3.25;;;3.90;84.00;;;;;;5048577;28;20040;-75
2021/11/27 09:08:32;;;;;;;4.53;3.85;;;3.90;84.10;;;;;;5094372;28;20048;-75
2021/11/27 09:10:59;;;;;;;4.28;3.50;;;3.80;84.10;;;;;;5071171;28;20515;-75
2021/11/27 09:13:24;;;;;;;4.10;3.70;;;3.80;84.20;;;;;;5071163;28;20487;-75
2021/11/27 09:15:50;;;;;;;4.88;3.97;;;3.80;84.40;;;;;;5089260;28;20020;-75
2021/11/27 09:18:16;;;;;;;4.93;4.22;;;3.80;84.50;;;;;;5071903;28;20028;-72
2021/11/27 09:20:42;;;;;;;4.88;3.85;;;3.70;84.50;;;;;;5089661;28;20404;-73
2021/11/27 09:23:08;;;;;;;5.45;4.60;;;3.70;84.60;;;;;;5088756;28;20028;-72
2021/11/27 09:25:35;;;;;;;4.78;3.47;;;3.80;84.70;;;;;;5070834;28;20616;-73
2021/11/27 09:28:01;;;;;;;4.13;3.25;;;3.80;84.60;;;;;;5071839;28;20024;-75
2021/11/27 09:30:29;;;;;;;4.45;3.50;;;3.70;84.80;;;;;;5089356;28;20444;-73
2021/11/27 09:32:55;;;;;;;4.85;3.22;;;3.70;84.90;;;;;;5089480;28;20479;-73
2021/11/27 09:35:21;;;;;;;4.38;3.13;;;3.70;84.90;;;;;;5087102;28;20046;-73
2021/11/27 09:37:48;;;;;;;3.55;2.95;;;3.70;85.10;;;;;;5088938;28;20081;-73
2021/11/27 09:40:14;;;;;;;4.57;3.40;;;3.70;85.10;;;;;;5087649;28;20036;-73
2021/11/27 09:42:41;;;;;;;3.15;2.83;;;3.70;85.40;;;;;;5070752;28;20147;-73
2021/11/27 09:45:08;;;;;;;3.90;2.97;;;3.70;85.40;;;;;;5093868;28;20024;-72
2021/11/27 09:47:34;;;;;;;3.35;2.80;;;3.80;85.50;;;;;;5094906;28;20401;-72
2021/11/27 09:50:08;;;;;;;3.55;2.70;;;3.80;85.30;;;;;;5074690;28;20035;-73
2021/11/27 09:52:35;;;;;;;3.67;2.80;;;3.80;85.30;;;;;;5084949;28;20059;-72
2021/11/27 09:55:02;;;;;;;4.40;3.42;;;3.80;85.40;;;;;;5090860;28;20028;-72
2021/11/27 09:57:28;;;;;;;5.00;2.70;;;3.80;85.50;;;;;;5085833;28;20024;-72
2021/11/27 09:59:54;;;;;;;7.00;3.30;;;3.80;85.50;;;;;;5090630;28;20035;-72
2021/11/27 10:02:22;;;;;;;4.78;2.60;;;3.80;85.50;;;;;;5074489;28;20525;-72
2021/11/27 10:04:56;;;;;;;2.83;2.53;;;3.80;85.70;;;;;;5056475;28;20032;-72
2021/11/27 10:07:22;;;;;;;4.43;2.60;;;3.80;85.70;;;;;;5071195;28;20046;-75
2021/11/27 10:09:50;;;;;;;3.35;2.50;;;3.80;85.80;;;;;;5080120;28;20035;-75
2021/11/27 10:12:18;;;;;;;3.15;2.70;;;3.80;85.90;;;;;;5089115;28;20127;-75
2021/11/27 10:14:43;;;;;;;3.78;2.67;;;3.90;86.10;;;;;;5092171;28;20056;-75
2021/11/27 10:17:17;;;;;;;3.20;2.90;;;4.00;86.10;;;;;;5094840;28;20085;-75
2021/11/27 10:19:43;;;;;;;3.70;2.90;;;4.00;86.10;;;;;;5090974;28;20020;-75
2021/11/27 10:22:11;;;;;;;2.95;2.45;;;4.00;85.80;;;;;;5092187;28;20034;-75
2021/11/27 10:24:37;;;;;;;2.83;2.40;;;4.00;85.80;;;;;;5073747;28;20134;-75
2021/11/27 10:27:05;;;;;;;3.88;2.45;;;4.00;85.90;;;;;;5094670;28;20042;-75
2021/11/27 10:29:34;;;;;;;3.92;2.97;;;4.10;86.00;;;;;;5094967;28;20032;-75
2021/11/27 10:32:05;;;;;;;3.80;2.75;;;4.10;86.00;;;;;;5096604;28;20581;-75
2021/11/27 10:34:32;;;;;;;3.47;2.78;;;4.10;86.00;;;;;;5097822;28;20477;-75
2021/11/27 10:36:58;;;;;;;3.50;2.80;;;4.10;86.00;;;;;;5097612;28;20161;-71
2021/11/27 10:39:24;;;;;;;3.10;2.45;;;4.20;86.10;;;;;;5075372;28;20130;-74
2021/11/27 10:42:00;;;;;;;3.00;2.67;;;4.20;86.10;;;;;;5095532;28;20479;-73
2021/11/27 10:44:32;;;;;;;4.80;2.60;;;4.30;86.20;;;;;;5082533;28;20028;-75
2021/11/27 10:47:18;;;;;;;4.40;3.00;;;4.30;86.10;;;;;;5094808;28;20017;-72
2021/11/27 10:49:48;;;;;;;3.88;2.92;;;4.40;85.80;;;;;;5070605;28;20414;-71
2021/11/27 10:52:17;;;;;;;4.05;3.13;;;4.30;85.70;;;;;;5102918;27;20020;-72
2021/11/27 10:54:56;;;;;;;4.35;2.60;;;4.30;85.80;;;;;;5090129;28;20085;-75
2021/11/27 10:57:36;;;;;;;3.83;2.60;;;4.30;85.90;;;;;;5086988;28;20032;-76
2021/11/27 11:00:27;;;;;;;6.25;2.88;;;4.20;86.10;;;;;;5093727;28;20126;-76
2021/11/27 11:02:54;;;;;;;5.43;2.92;;;4.30;86.10;;;;;;5100534;28;20035;-75
2021/11/27 11:05:20;;;;;;;9.05;4.18;;;4.20;86.10;;;;;;5057294;28;20044;-75
2021/11/27 11:07:57;;;;;;;4.97;3.42;;;4.20;86.40;;;;;;5100991;28;20032;-75
2021/11/27 11:10:32;;;;;;;7.68;4.10;;;4.30;86.60;;;;;;5092994;28;20028;-75
2021/11/27 11:12:59;;;;;;;7.75;4.95;;;4.40;86.60;;;;;;5093370;28;20417;-76
2021/11/27 11:15:26;;;;;;;10.85;5.55;;;4.40;86.70;;;;;;5087227;28;20310;-76
2021/11/27 11:18:16;;;;;;;11.32;6.05;;;4.40;86.70;;;;;;5068113;28;20097;-71
2021/11/27 11:21:01;;;;;;;10.38;6.15;;;4.40;87.00;;;;;;5092637;28;20098;-71
2021/11/27 11:23:29;;;;;;;11.68;7.15;;;4.50;87.10;;;;;;5073423;28;20094;-71
2021/11/27 11:26:07;;;;;;;10.70;7.30;;;4.50;87.30;;;;;;5085715;28;20035;-71
2021/11/27 11:28:36;;;;;;;17.95;9.13;;;4.60;87.50;;;;;;5088485;28;20081;-70
2021/11/27 11:31:09;;;;;;;18.92;11.38;;;4.70;87.70;;;;;;5069425;28;20107;-70
2021/11/27 11:33:38;;;;;;;28.05;14.38;;;4.70;87.70;;;;;;5103270;28;20107;-74
2021/11/27 11:36:10;;;;;;;24.58;13.73;;;4.80;87.60;;;;;;5095602;28;20089;-74
2021/11/27 11:38:42;;;;;;;27.83;15.48;;;4.80;87.70;;;;;;5090434;28;20057;-74
2021/11/27 11:41:09;;;;;;;27.10;15.38;;;4.80;87.70;;;;;;5089619;28;20470;-71
2021/11/27 11:43:34;;;;;;;24.75;15.18;;;4.80;87.90;;;;;;5087072;28;20110;-71
2021/11/27 11:46:00;;;;;;;28.85;16.67;;;4.80;87.80;;;;;;5085168;28;20116;-71
2021/11/27 11:48:28;;;;;;;30.75;16.25;;;4.90;87.90;;;;;;5087829;28;20036;-71
2021/11/27 11:51:33;;;;;;;29.80;16.17;;;4.90;87.90;;;;;;5093581;28;20093;-72
2021/11/27 11:54:00;;;;;;;29.73;14.25;;;5.00;87.90;;;;;;5089384;28;20028;-73
2021/11/27 11:56:34;;;;;;;28.17;15.05;;;5.00;87.70;;;;;;5085936;28;20097;-72
2021/11/27 11:59:28;;;;;;;32.33;15.32;;;5.10;87.80;;;;;;5087132;28;20047;-72
2021/11/27 12:02:26;;;;;;;30.08;15.40;;;5.20;87.70;;;;;;5068450;28;20038;-72
2021/11/27 12:04:58;;;;;;;27.23;15.93;;;5.20;87.50;;;;;;5091736;28;20024;-72
2021/11/27 12:07:46;;;;;;;25.90;13.75;;;5.30;87.00;;;;;;5069808;28;20043;-71
2021/11/27 12:10:19;;;;;;;28.58;14.02;;;5.40;87.20;;;;;;5097513;28;20024;-72
2021/11/27 12:13:05;;;;;;;29.25;14.48;;;5.50;87.00;;;;;;5078006;28;20475;-73
2021/11/27 12:15:39;;;;;;;31.80;15.18;;;5.70;86.80;;;;;;5068396;28;20020;-72
2021/11/27 12:18:16;;;;;;;29.75;15.15;;;5.70;86.10;;;;;;5090162;28;20023;-73
2021/11/27 12:21:03;;;;;;;25.77;14.52;;;5.80;85.80;;;;;;5086363;28;20038;-73
2021/11/27 12:23:31;;;;;;;31.55;14.68;;;5.80;85.70;;;;;;5086154;28;20040;-73
2021/11/27 12:26:09;;;;;;;30.95;15.77;;;5.80;85.60;;;;;;5057953;28;20038;-73
2021/11/27 12:28:40;;;;;;;29.05;15.07;;;5.80;85.90;;;;;;5085596;28;20466;-73
2021/11/27 12:31:11;;;;;;;29.10;14.38;;;5.90;85.90;;;;;;5086002;28;20031;-73
2021/11/27 12:33:58;;;;;;;41.65;15.68;;;5.90;85.40;;;;;;5094048;28;20032;-73
2021/11/27 12:39:03;;;;;;;30.23;15.10;;;5.90;85.10;;;;;;5083945;28;20020;-76
2021/11/27 12:41:35;;;;;;;33.72;14.52;;;5.90;85.00;;;;;;5091207;28;20020;-76
2021/11/27 12:44:09;;;;;;;;;;;5.90;85.00;;;;;;5088942;28;20387;-76
2021/11/27 12:46:35;;;;;;;31.23;13.45;;;5.90;84.90;;;;;;5092003;28;20535;-73
2021/11/27 12:49:01;;;;;;;26.35;12.25;;;5.90;84.60;;;;;;5084613;28;20103;-73
2021/11/27 12:51:27;;;;;;;32.15;12.20;;;5.90;84.30;;;;;;5085752;28;20043;-73
2021/11/27 12:53:59;;;;;;;23.35;11.02;;;5.90;83.80;;;;;;5066619;28;20490;-73
2021/11/27 12:56:26;;;;;;;25.95;12.23;;;5.80;83.60;;;;;;5087363;28;20059;-73
2021/11/27 12:58:52;;;;;;;24.30;10.80;;;5.80;83.30;;;;;;5085396;28;20378;-73
2021/11/27 13:01:32;;;;;;;26.15;11.38;;;5.80;83.70;;;;;;5084923;28;20020;-72